createdAt,value
2023-06-27T00:16:07.389Z,14.20
2023-06-27T00:37:51.161Z,13.20
2023-06-27T00:59:37.244Z,12.70
2023-06-27T01:21:25.801Z,13.20
2023-06-27T02:04:56.162Z,19.50
2023-06-27T02:26:39.938Z,16.10
2023-06-27T02:48:23.015Z,15.90
2023-06-27T03:10:07.475Z,18.60
2023-06-27T03:31:50.778Z,19.30
2023-06-27T03:53:35.345Z,16.00
2023-06-27T04:15:18.683Z,16.50
2023-06-27T04:37:02.240Z,15.40
2023-06-27T04:58:45.325Z,15.30
2023-06-27T05:20:28.550Z,16.90
2023-06-27T05:42:11.577Z,14.50
2023-06-27T06:03:54.915Z,14.50
2023-06-27T06:25:38.302Z,13.70
2023-06-27T06:47:21.755Z,14.60
2023-06-27T07:09:05.388Z,9.50
2023-06-27T07:30:48.714Z,9.60
2023-06-27T07:52:31.815Z,10.50
2023-06-27T08:14:15.022Z,9.90
2023-06-27T08:35:58.132Z,11.80
2023-06-27T08:57:43.099Z,8.90
2023-06-27T09:19:28.282Z,12.00
2023-06-27T09:41:12.801Z,9.30
2023-06-27T10:02:56.102Z,10.50
2023-06-27T10:24:42.099Z,10.80
2023-06-27T10:46:26.968Z,8.60
2023-06-27T11:08:14.209Z,7.40
2023-06-27T11:30:04.456Z,10.40
2023-06-27T11:51:47.695Z,11.50
2023-06-27T12:13:33.624Z,9.80
2023-06-27T12:35:18.670Z,6.20
2023-06-27T12:57:02.002Z,5.80
2023-06-27T13:18:46.132Z,8.10
2023-06-27T13:40:30.452Z,9.40
2023-06-27T14:02:13.538Z,6.20
2023-06-27T14:24:16.893Z,8.90
2023-06-27T14:45:59.972Z,6.00
2023-06-27T15:07:42.986Z,4.90
2023-06-27T15:29:26.029Z,6.50
2023-06-27T15:51:09.144Z,3.90
2023-06-27T16:12:52.128Z,12.10
2023-06-27T16:34:39.297Z,3.00
2023-06-27T16:56:26.005Z,4.90
2023-06-27T17:18:09.269Z,5.80
2023-06-27T17:39:52.292Z,8.50
2023-06-27T18:01:35.360Z,6.50
2023-06-27T18:23:18.541Z,7.40
2023-06-27T18:45:01.640Z,5.90
2023-06-27T19:06:51.569Z,4.30
2023-06-27T19:28:36.247Z,9.70
2023-06-27T19:50:19.529Z,9.60
2023-06-27T20:12:02.613Z,7.80
2023-06-27T20:55:28.990Z,8.10
2023-06-27T21:17:15.625Z,10.40
2023-06-27T21:38:58.770Z,7.80
2023-06-27T22:00:42.314Z,13.70
2023-06-27T22:22:25.888Z,12.00
2023-06-27T22:44:09.094Z,9.00
2023-06-27T23:05:52.096Z,10.30
2023-06-27T23:27:36.016Z,8.70
